createdAt,value
2018-03-18T00:01:57.610Z,-4.00
2018-03-18T00:04:25.896Z,-4.00
2018-03-18T00:06:53.400Z,-4.00
2018-03-18T00:09:20.925Z,-3.90
2018-03-18T00:11:48.437Z,-4.00
2018-03-18T00:14:16.677Z,-4.00
2018-03-18T00:16:44.276Z,-4.00
2018-03-18T00:19:11.860Z,-4.00
2018-03-18T00:21:39.539Z,-4.00
2018-03-18T00:24:08.031Z,-4.00
2018-03-18T00:26:36.310Z,-4.10
2018-03-18T00:29:04.595Z,-4.10
2018-03-18T00:31:32.986Z,-4.10
2018-03-18T00:34:01.326Z,-4.10
2018-03-18T00:36:28.916Z,-4.10
2018-03-18T00:38:56.438Z,-4.20
2018-03-18T00:41:23.927Z,-4.20
2018-03-18T00:43:51.426Z,-4.10
2018-03-18T00:46:19.694Z,-4.20
2018-03-18T00:48:48.501Z,-4.20
2018-03-18T00:51:27.847Z,-4.20
2018-03-18T00:53:55.344Z,-4.20
2018-03-18T00:56:22.856Z,-4.20
2018-03-18T00:58:51.104Z,-4.20
2018-03-18T01:01:18.610Z,-4.30
2018-03-18T01:03:46.108Z,-4.30
2018-03-18T01:06:13.710Z,-4.30
2018-03-18T01:08:41.440Z,-4.30
2018-03-18T01:11:08.955Z,-4.30
2018-03-18T01:13:37.226Z,-4.40
2018-03-18T01:16:05.495Z,-4.30
2018-03-18T01:18:33.068Z,-4.30
2018-03-18T01:21:00.612Z,-4.40
2018-03-18T01:23:28.098Z,-4.40
2018-03-18T01:25:56.436Z,-4.40
2018-03-18T01:28:23.936Z,-4.40
2018-03-18T01:30:51.454Z,-4.50
2018-03-18T01:33:19.046Z,-4.40
2018-03-18T01:35:46.496Z,-4.50
2018-03-18T01:38:13.998Z,-4.50
2018-03-18T01:40:42.344Z,-4.50
2018-03-18T01:43:09.871Z,-4.60
2018-03-18T01:45:38.110Z,-4.60
2018-03-18T01:48:05.648Z,-4.60
2018-03-18T01:50:33.134Z,-4.60
2018-03-18T01:53:13.258Z,-4.60
2018-03-18T01:55:40.749Z,-4.60
2018-03-18T01:58:08.235Z,-4.60
2018-03-18T02:00:36.905Z,-4.60
2018-03-18T02:03:04.418Z,-4.70
2018-03-18T02:05:31.913Z,-4.70
2018-03-18T02:07:59.414Z,-4.70
2018-03-18T02:10:27.668Z,-4.70
2018-03-18T02:12:55.930Z,-4.70
2018-03-18T02:15:23.468Z,-4.80
2018-03-18T02:17:51.052Z,-4.70
2018-03-18T02:20:18.559Z,-4.70
2018-03-18T02:22:46.840Z,-4.80
2018-03-18T02:25:15.174Z,-4.80
2018-03-18T02:27:42.676Z,-4.80
2018-03-18T02:30:10.964Z,-4.80
2018-03-18T02:32:39.333Z,-4.80
2018-03-18T02:35:06.855Z,-4.80
2018-03-18T02:37:34.389Z,-4.80
2018-03-18T02:40:02.678Z,-4.80
2018-03-18T02:42:30.207Z,-4.90
2018-03-18T02:44:57.754Z,-4.80
2018-03-18T02:47:25.260Z,-4.90
2018-03-18T02:49:53.521Z,-4.90
2018-03-18T02:52:21.804Z,-4.90
2018-03-18T02:54:49.310Z,-4.90
2018-03-18T02:57:16.834Z,-4.90
2018-03-18T02:59:45.109Z,-4.90
2018-03-18T03:02:13.375Z,-5.00
2018-03-18T03:04:40.890Z,-5.00
2018-03-18T03:07:08.392Z,-4.90
2018-03-18T03:09:35.881Z,-5.00
2018-03-18T03:12:04.904Z,-5.10
2018-03-18T03:14:32.416Z,-5.10
2018-03-18T03:17:00.019Z,-5.00
2018-03-18T03:19:28.316Z,-5.00
2018-03-18T03:21:56.017Z,-5.10
2018-03-18T03:24:23.701Z,-5.10
2018-03-18T03:26:51.213Z,-5.10
2018-03-18T03:29:18.720Z,-5.10
2018-03-18T03:31:46.262Z,-5.10
2018-03-18T03:34:13.952Z,-5.10
2018-03-18T03:36:41.398Z,-5.10
2018-03-18T03:39:09.061Z,-5.10
2018-03-18T03:41:36.569Z,-5.10
2018-03-18T03:44:04.078Z,-5.10
2018-03-18T03:46:31.603Z,-5.10
2018-03-18T03:48:59.139Z,-5.10
2018-03-18T03:51:26.623Z,-5.20
2018-03-18T03:53:54.899Z,-5.10
2018-03-18T03:56:22.417Z,-5.20
2018-03-18T03:58:50.701Z,-5.20
2018-03-18T04:01:18.201Z,-5.20
2018-03-18T04:03:45.713Z,-5.20
2018-03-18T04:06:13.258Z,-5.20
2018-03-18T04:08:41.543Z,-5.30
2018-03-18T04:11:09.207Z,-5.30
2018-03-18T04:13:36.746Z,-5.30
2018-03-18T04:16:04.297Z,-5.20
2018-03-18T04:18:31.811Z,-5.30
2018-03-18T04:20:59.305Z,-5.30
2018-03-18T04:23:26.823Z,-5.30
2018-03-18T04:25:55.093Z,-5.30
2018-03-18T04:28:22.584Z,-5.30
2018-03-18T04:30:50.083Z,-5.30
2018-03-18T04:33:17.565Z,-5.30
2018-03-18T04:35:45.059Z,-5.30
2018-03-18T04:38:13.311Z,-5.40
2018-03-18T04:40:40.885Z,-5.40
2018-03-18T04:43:09.144Z,-5.40
2018-03-18T04:45:36.935Z,-5.40
2018-03-18T04:48:04.427Z,-5.40
2018-03-18T04:50:31.923Z,-5.30
2018-03-18T04:52:59.427Z,-5.40
2018-03-18T04:55:27.699Z,-5.40
2018-03-18T04:57:55.227Z,-5.50
2018-03-18T05:00:22.727Z,-5.40
2018-03-18T05:02:50.252Z,-5.50
2018-03-18T05:05:17.780Z,-5.50
2018-03-18T05:07:45.265Z,-5.50
2018-03-18T05:10:12.789Z,-5.40
2018-03-18T05:12:41.057Z,-5.50
2018-03-18T05:15:08.544Z,-5.50
2018-03-18T05:17:36.807Z,-5.50
2018-03-18T05:20:05.079Z,-5.50
2018-03-18T05:22:32.573Z,-5.50
2018-03-18T05:25:00.086Z,-5.50
2018-03-18T05:27:27.576Z,-5.50
2018-03-18T05:29:55.839Z,-5.50
2018-03-18T05:32:24.035Z,-5.50
2018-03-18T05:34:52.307Z,-5.50
2018-03-18T05:37:19.819Z,-5.50
2018-03-18T05:39:47.332Z,-5.40
2018-03-18T05:42:14.827Z,-5.40
2018-03-18T05:44:42.337Z,-5.40
2018-03-18T05:47:09.825Z,-5.40
2018-03-18T05:49:37.347Z,-5.40
2018-03-18T05:52:04.840Z,-5.40
2018-03-18T05:54:32.334Z,-5.40
2018-03-18T05:57:00.602Z,-5.30
2018-03-18T05:59:28.859Z,-5.30
2018-03-18T06:01:56.358Z,-5.30
2018-03-18T06:04:23.845Z,-5.30
2018-03-18T06:06:51.334Z,-5.30
2018-03-18T06:09:18.827Z,-5.30
2018-03-18T06:11:46.359Z,-5.20
2018-03-18T06:14:13.847Z,-5.20
2018-03-18T06:16:41.349Z,-5.20
2018-03-18T06:19:08.872Z,-5.10
2018-03-18T06:21:36.374Z,-5.10
2018-03-18T06:24:03.875Z,-5.10
2018-03-18T06:26:31.386Z,-5.00
2018-03-18T06:28:59.647Z,-4.70
2018-03-18T06:31:27.211Z,-4.70
2018-03-18T06:33:54.717Z,-4.60
2018-03-18T06:36:22.273Z,-4.40
2018-03-18T06:38:49.751Z,-4.30
2018-03-18T06:41:17.237Z,-4.20
2018-03-18T06:43:44.754Z,-4.00
2018-03-18T06:46:12.253Z,-4.00
2018-03-18T06:48:39.751Z,-3.90
2018-03-18T06:51:07.244Z,-4.00
2018-03-18T06:53:35.488Z,-4.00
2018-03-18T06:56:02.982Z,-4.00
2018-03-18T06:58:31.256Z,-3.90
2018-03-18T07:00:59.526Z,-3.90
2018-03-18T07:03:27.019Z,-3.90
2018-03-18T07:05:54.566Z,-3.90
2018-03-18T07:08:22.834Z,-3.80
2018-03-18T07:10:51.098Z,-3.80
2018-03-18T07:13:18.607Z,-3.80
2018-03-18T07:15:46.235Z,-3.80
2018-03-18T07:18:13.758Z,-3.70
2018-03-18T07:20:41.412Z,-3.60
2018-03-18T07:23:09.062Z,-3.60
2018-03-18T07:25:36.547Z,-3.70
2018-03-18T07:28:04.051Z,-3.70
2018-03-18T07:30:31.554Z,-3.70
2018-03-18T07:32:59.075Z,-3.70
2018-03-18T07:35:28.118Z,-3.80
2018-03-18T07:37:55.626Z,-3.80
2018-03-18T07:40:23.114Z,-3.70
2018-03-18T07:42:50.640Z,-3.70
2018-03-18T07:45:18.127Z,-3.70
2018-03-18T07:47:45.641Z,-3.80
2018-03-18T07:50:13.205Z,-3.70
2018-03-18T07:52:40.719Z,-3.60
2018-03-18T07:55:08.233Z,-3.50
2018-03-18T07:57:35.834Z,-3.50
2018-03-18T08:00:03.347Z,-3.40
2018-03-18T08:02:31.602Z,-3.50
2018-03-18T08:04:59.874Z,-3.60
2018-03-18T08:07:27.413Z,-3.60
2018-03-18T08:09:54.920Z,-3.50
2018-03-18T08:12:23.221Z,-3.20
2018-03-18T08:14:50.762Z,-3.20
2018-03-18T08:17:19.026Z,-3.10
2018-03-18T08:19:47.289Z,-3.00
2018-03-18T08:22:14.779Z,-3.00
2018-03-18T08:24:43.133Z,-3.10
2018-03-18T08:27:10.679Z,-3.10
2018-03-18T08:29:38.186Z,-3.00
2018-03-18T08:32:05.677Z,-3.00
2018-03-18T08:34:33.193Z,-3.00
2018-03-18T08:37:00.756Z,-3.00
2018-03-18T08:39:28.247Z,-3.00
2018-03-18T08:41:56.521Z,-2.80
2018-03-18T08:44:24.055Z,-2.90
2018-03-18T08:46:51.566Z,-2.70
2018-03-18T08:49:20.158Z,-2.40
2018-03-18T08:51:48.437Z,-2.30
2018-03-18T08:54:16.711Z,-2.40
2018-03-18T08:56:45.058Z,-2.60
2018-03-18T08:59:12.583Z,-2.60
2018-03-18T09:01:40.095Z,-2.60
2018-03-18T09:04:08.401Z,-2.20
2018-03-18T09:06:36.719Z,-2.10
2018-03-18T09:09:04.945Z,-1.90
2018-03-18T09:11:32.499Z,-1.90
2018-03-18T09:13:59.992Z,-1.90
2018-03-18T09:16:27.487Z,-2.10
2018-03-18T09:18:55.053Z,-2.10
2018-03-18T09:21:22.551Z,-2.00
2018-03-18T09:23:50.181Z,-2.10
2018-03-18T09:26:18.109Z,-2.00
2018-03-18T09:28:45.628Z,-2.20
2018-03-18T09:31:13.110Z,-2.00
2018-03-18T09:33:40.805Z,-1.90
2018-03-18T09:36:08.307Z,-1.90
2018-03-18T09:38:35.817Z,-1.70
2018-03-18T09:41:03.361Z,-1.60
2018-03-18T09:43:30.922Z,-1.50
2018-03-18T09:45:58.447Z,-1.40
2018-03-18T09:48:25.978Z,-1.50
2018-03-18T09:50:53.469Z,-1.50
2018-03-18T09:53:21.775Z,-1.30
2018-03-18T09:55:49.299Z,-1.30
2018-03-18T09:58:17.573Z,-1.00
2018-03-18T10:00:45.090Z,-1.00
2018-03-18T10:03:13.371Z,-0.90
2018-03-18T10:05:40.877Z,-0.90
2018-03-18T10:08:08.429Z,-0.90
2018-03-18T10:10:35.945Z,-0.80
2018-03-18T10:13:03.473Z,-0.70
2018-03-18T10:15:30.985Z,-0.70
2018-03-18T10:17:58.468Z,-0.60
2018-03-18T10:20:26.010Z,-0.50
2018-03-18T10:22:53.513Z,-0.60
2018-03-18T10:25:21.048Z,-0.70
2018-03-18T10:27:48.554Z,-0.60
2018-03-18T10:30:16.853Z,-0.50
2018-03-18T10:32:45.137Z,-0.60
2018-03-18T10:35:12.702Z,-0.60
2018-03-18T10:37:40.213Z,-0.50
2018-03-18T10:40:07.813Z,-0.50
2018-03-18T10:42:36.110Z,-0.30
2018-03-18T10:45:04.592Z,-0.40
2018-03-18T10:47:32.913Z,-0.40
2018-03-18T10:50:00.430Z,-0.40
2018-03-18T10:52:28.742Z,-0.20
2018-03-18T10:54:56.405Z,-0.20
2018-03-18T10:57:23.900Z,0.00
2018-03-18T10:59:51.423Z,0.00
2018-03-18T11:02:21.815Z,0.00
2018-03-18T11:04:49.365Z,0.10
2018-03-18T11:07:16.935Z,0.20
2018-03-18T11:09:44.565Z,0.00
2018-03-18T11:12:12.099Z,-0.20
2018-03-18T11:14:39.625Z,-0.20
2018-03-18T11:17:07.137Z,-0.20
2018-03-18T11:19:34.664Z,-0.10
2018-03-18T11:22:02.202Z,0.00
2018-03-18T11:24:29.696Z,0.00
2018-03-18T11:26:57.220Z,0.10
2018-03-18T11:29:24.734Z,-0.10
2018-03-18T11:31:53.135Z,0.00
2018-03-18T11:34:24.447Z,0.00
2018-03-18T11:36:51.987Z,-0.10
2018-03-18T11:39:19.517Z,-0.20
2018-03-18T11:41:47.025Z,-0.10
2018-03-18T11:44:14.532Z,-0.10
2018-03-18T11:46:42.808Z,0.20
2018-03-18T11:49:11.079Z,0.20
2018-03-18T11:51:39.362Z,-0.10
2018-03-18T11:54:07.678Z,-0.10
2018-03-18T11:56:35.216Z,-0.20
2018-03-18T11:59:03.588Z,0.20
2018-03-18T12:01:31.860Z,0.30
2018-03-18T12:04:00.998Z,0.50
2018-03-18T12:06:28.534Z,0.50
2018-03-18T12:08:58.626Z,0.20
2018-03-18T12:11:26.156Z,0.20
2018-03-18T12:13:53.667Z,0.20
2018-03-18T12:16:21.209Z,0.30
2018-03-18T12:18:49.151Z,0.40
2018-03-18T12:21:16.690Z,0.50
2018-03-18T12:23:44.560Z,0.60
2018-03-18T12:26:13.117Z,0.70
2018-03-18T12:28:40.813Z,0.70
2018-03-18T12:31:08.372Z,0.70
2018-03-18T12:33:36.637Z,0.50
2018-03-18T12:36:04.145Z,0.50
2018-03-18T12:38:31.642Z,0.40
2018-03-18T12:40:59.159Z,0.40
2018-03-18T12:43:31.014Z,0.30
2018-03-18T12:45:59.284Z,0.20
2018-03-18T12:48:27.558Z,0.30
2018-03-18T12:50:55.063Z,0.30
2018-03-18T12:53:22.585Z,0.30
2018-03-18T12:55:50.145Z,0.40
2018-03-18T12:58:17.665Z,0.50
2018-03-18T13:00:45.166Z,0.60
2018-03-18T13:03:12.687Z,0.60
2018-03-18T13:05:40.288Z,0.60
2018-03-18T13:08:07.844Z,0.40
2018-03-18T13:10:35.360Z,0.50
2018-03-18T13:13:02.885Z,0.60
2018-03-18T13:15:31.179Z,0.60
2018-03-18T13:18:00.171Z,0.60
2018-03-18T13:20:27.673Z,0.60
2018-03-18T13:22:55.181Z,0.60
2018-03-18T13:25:22.735Z,0.60
2018-03-18T13:27:50.249Z,0.70
2018-03-18T13:30:18.515Z,0.80
2018-03-18T13:32:46.791Z,0.80
2018-03-18T13:35:14.300Z,0.80
2018-03-18T13:37:41.829Z,0.80
2018-03-18T13:40:10.147Z,0.80
2018-03-18T13:42:37.665Z,0.80
2018-03-18T13:45:05.275Z,0.80
2018-03-18T13:47:32.803Z,0.90
2018-03-18T13:50:00.319Z,1.00
2018-03-18T13:52:27.823Z,1.00
2018-03-18T13:54:56.100Z,1.10
2018-03-18T13:57:24.387Z,1.10
2018-03-18T13:59:52.668Z,1.10
2018-03-18T14:02:20.223Z,1.10
2018-03-18T14:04:48.291Z,1.10
2018-03-18T14:07:16.596Z,1.10
2018-03-18T14:09:44.869Z,1.00
2018-03-18T14:12:13.165Z,1.00
2018-03-18T14:14:40.731Z,1.00
2018-03-18T14:17:08.258Z,0.90
2018-03-18T14:19:35.817Z,1.00
2018-03-18T14:22:03.430Z,0.90
2018-03-18T14:24:30.945Z,0.80
2018-03-18T14:26:58.470Z,0.80
2018-03-18T14:29:26.015Z,0.80
2018-03-18T14:31:54.560Z,0.80
2018-03-18T14:34:22.297Z,0.80
2018-03-18T14:36:50.010Z,0.90
2018-03-18T14:39:17.524Z,0.90
2018-03-18T14:41:46.207Z,1.00
2018-03-18T14:44:13.772Z,1.00
2018-03-18T14:46:41.271Z,1.10
2018-03-18T14:49:09.577Z,0.90
2018-03-18T14:51:37.089Z,0.90
2018-03-18T14:54:04.636Z,0.80
2018-03-18T14:56:32.976Z,0.90
2018-03-18T14:59:00.466Z,0.90
2018-03-18T15:01:28.832Z,0.90
2018-03-18T15:03:56.351Z,0.90
2018-03-18T15:06:23.888Z,0.90
2018-03-18T15:08:51.415Z,0.90
2018-03-18T15:11:18.929Z,0.80
2018-03-18T15:13:46.415Z,0.80
2018-03-18T15:16:13.909Z,0.70
2018-03-18T15:18:41.476Z,0.70
2018-03-18T15:21:08.988Z,0.70
2018-03-18T15:23:36.504Z,0.70
2018-03-18T15:26:04.056Z,0.70
2018-03-18T15:28:31.570Z,0.70
2018-03-18T15:30:59.071Z,0.80
2018-03-18T15:33:26.567Z,0.80
2018-03-18T15:35:54.839Z,0.70
2018-03-18T15:38:22.369Z,0.70
2018-03-18T15:40:49.867Z,0.70
2018-03-18T15:43:18.126Z,0.80
2018-03-18T15:45:45.622Z,0.70
2018-03-18T15:48:13.887Z,0.60
2018-03-18T15:50:41.413Z,0.60
2018-03-18T15:53:08.921Z,0.60
2018-03-18T15:55:36.696Z,0.50
2018-03-18T15:58:05.112Z,0.50
2018-03-18T16:00:32.634Z,0.50
2018-03-18T16:03:00.136Z,0.50
2018-03-18T16:05:27.633Z,0.50
2018-03-18T16:07:55.169Z,0.50
2018-03-18T16:10:22.836Z,0.50
2018-03-18T16:12:50.473Z,0.40
2018-03-18T16:15:18.791Z,0.30
2018-03-18T16:17:46.283Z,0.30
2018-03-18T16:20:14.548Z,0.30
2018-03-18T16:22:42.056Z,0.20
2018-03-18T16:25:10.377Z,0.20
2018-03-18T16:27:38.518Z,0.20
2018-03-18T16:30:18.753Z,0.10
2018-03-18T16:32:47.074Z,0.10
2018-03-18T16:35:14.557Z,0.10
2018-03-18T16:37:42.067Z,0.10
2018-03-18T16:40:09.566Z,0.10
2018-03-18T16:42:37.071Z,0.00
2018-03-18T16:45:04.560Z,0.00
2018-03-18T16:47:32.887Z,0.00
2018-03-18T16:50:00.385Z,0.00
2018-03-18T16:52:29.406Z,-0.10
2018-03-18T16:54:57.688Z,-0.20
2018-03-18T16:57:25.946Z,-0.20
2018-03-18T16:59:53.482Z,-0.30
2018-03-18T17:02:21.040Z,-0.30
2018-03-18T17:04:48.555Z,-0.30
2018-03-18T17:07:16.834Z,-0.40
2018-03-18T17:09:45.145Z,-0.50
2018-03-18T17:12:12.783Z,-0.50
2018-03-18T17:14:41.053Z,-0.50
2018-03-18T17:17:08.613Z,-0.60
2018-03-18T17:19:36.121Z,-0.60
2018-03-18T17:22:03.656Z,-0.60
2018-03-18T17:24:31.918Z,-0.70
2018-03-18T17:27:00.218Z,-0.70
2018-03-18T17:29:29.918Z,-0.70
2018-03-18T17:31:59.107Z,-0.70
2018-03-18T17:34:26.804Z,-0.70
2018-03-18T17:36:54.364Z,-0.70
2018-03-18T17:39:22.678Z,-0.80
2018-03-18T17:41:50.294Z,-0.80
2018-03-18T17:44:29.712Z,-0.90
2018-03-18T17:47:09.071Z,-0.90
2018-03-18T17:49:48.598Z,-0.90
2018-03-18T17:52:27.940Z,-1.00
2018-03-18T17:55:07.380Z,-0.90
2018-03-18T17:57:34.868Z,-1.00
2018-03-18T18:00:02.414Z,-1.00
2018-03-18T18:02:29.944Z,-1.00
2018-03-18T18:04:57.505Z,-1.00
2018-03-18T18:07:25.013Z,-1.00
2018-03-18T18:09:53.346Z,-1.00
2018-03-18T18:12:20.872Z,-1.00
2018-03-18T18:14:48.428Z,-1.00
2018-03-18T18:17:16.039Z,-1.10
2018-03-18T18:19:43.532Z,-1.20
2018-03-18T18:22:11.836Z,-1.20
2018-03-18T18:24:40.808Z,-1.20
2018-03-18T18:27:08.687Z,-1.30
2018-03-18T18:29:36.229Z,-1.20
2018-03-18T18:32:03.738Z,-1.10
2018-03-18T18:34:31.250Z,-1.20
2018-03-18T18:36:58.837Z,-1.20
2018-03-18T18:39:27.126Z,-1.30
2018-03-18T18:41:55.503Z,-1.30
2018-03-18T18:44:24.202Z,-1.30
2018-03-18T18:46:52.553Z,-1.40
2018-03-18T18:49:20.084Z,-1.50
2018-03-18T18:51:47.627Z,-1.50
2018-03-18T18:54:15.171Z,-1.40
2018-03-18T18:56:43.483Z,-1.40
2018-03-18T18:59:11.010Z,-1.40
2018-03-18T19:01:39.304Z,-1.40
2018-03-18T19:04:07.596Z,-1.40
2018-03-18T19:06:35.225Z,-1.40
2018-03-18T19:09:02.749Z,-1.40
2018-03-18T19:11:30.442Z,-1.50
2018-03-18T19:13:58.010Z,-1.50
2018-03-18T19:16:25.612Z,-1.50
2018-03-18T19:18:53.940Z,-1.60
2018-03-18T19:21:21.448Z,-1.60
2018-03-18T19:23:48.982Z,-1.60
2018-03-18T19:26:16.483Z,-1.60
2018-03-18T19:28:44.755Z,-1.60
2018-03-18T19:31:12.572Z,-1.60
2018-03-18T19:33:40.096Z,-1.60
2018-03-18T19:36:12.174Z,-1.60
2018-03-18T19:41:24.526Z,-1.60
2018-03-18T19:43:52.228Z,-1.60
2018-03-18T19:46:19.824Z,-1.60
2018-03-18T19:48:48.300Z,-1.70
2018-03-18T19:51:16.594Z,-1.70
2018-03-18T19:53:45.016Z,-1.70
2018-03-18T19:56:12.586Z,-1.60
2018-03-18T19:58:40.122Z,-1.70
2018-03-18T20:01:07.759Z,-1.80
2018-03-18T20:03:36.095Z,-1.80
2018-03-18T20:06:03.616Z,-1.80
2018-03-18T20:08:31.929Z,-1.90
2018-03-18T20:10:59.432Z,-1.90
2018-03-18T20:13:26.945Z,-1.90
2018-03-18T20:15:54.468Z,-2.00
2018-03-18T20:18:22.005Z,-2.00
2018-03-18T20:20:49.581Z,-2.00
2018-03-18T20:23:17.102Z,-2.00
2018-03-18T20:25:44.622Z,-2.00
2018-03-18T20:28:12.913Z,-2.00
2018-03-18T20:30:41.242Z,-2.00
2018-03-18T20:33:08.766Z,-2.00
2018-03-18T20:35:36.306Z,-1.90
2018-03-18T20:38:03.850Z,-1.90
2018-03-18T20:40:32.224Z,-2.00
2018-03-18T20:42:59.733Z,-2.00
2018-03-18T20:45:28.022Z,-2.10
2018-03-18T20:47:56.306Z,-2.20
2018-03-18T20:50:24.612Z,-2.20
2018-03-18T20:52:52.117Z,-2.20
2018-03-18T20:55:19.694Z,-2.20
2018-03-18T20:57:47.201Z,-2.20
2018-03-18T21:00:14.854Z,-2.20
2018-03-18T21:02:43.106Z,-2.30
2018-03-18T21:05:11.416Z,-2.30
2018-03-18T21:07:38.965Z,-2.30
2018-03-18T21:10:07.869Z,-2.30
2018-03-18T21:12:35.386Z,-2.30
2018-03-18T21:15:02.927Z,-2.40
2018-03-18T21:17:30.458Z,-2.30
2018-03-18T21:19:58.039Z,-2.40
2018-03-18T21:22:25.650Z,-2.30
2018-03-18T21:24:53.226Z,-2.40
2018-03-18T21:27:20.727Z,-2.40
2018-03-18T21:29:48.259Z,-2.40
2018-03-18T21:32:15.784Z,-2.50
2018-03-18T21:34:43.344Z,-2.40
2018-03-18T21:37:10.946Z,-2.40
2018-03-18T21:39:39.217Z,-2.40
2018-03-18T21:42:06.939Z,-2.50
2018-03-18T21:44:34.454Z,-2.40
2018-03-18T21:47:03.538Z,-2.50
2018-03-18T21:49:31.057Z,-2.50
2018-03-18T21:51:58.598Z,-2.50
2018-03-18T21:54:26.908Z,-2.60
2018-03-18T21:56:54.503Z,-2.60
2018-03-18T21:59:22.024Z,-2.60
2018-03-18T22:01:49.564Z,-2.60
2018-03-18T22:04:17.945Z,-2.60
2018-03-18T22:06:46.236Z,-2.60
2018-03-18T22:09:14.578Z,-2.70
2018-03-18T22:11:42.114Z,-2.70
2018-03-18T22:14:09.612Z,-2.70
2018-03-18T22:16:37.166Z,-2.70
2018-03-18T22:19:04.679Z,-2.70
2018-03-18T22:21:33.033Z,-2.70
2018-03-18T22:24:00.566Z,-2.70
2018-03-18T22:26:28.131Z,-2.80
2018-03-18T22:28:55.794Z,-2.70
2018-03-18T22:31:24.028Z,-2.80
2018-03-18T22:33:52.328Z,-2.80
2018-03-18T22:36:19.829Z,-2.80
2018-03-18T22:38:48.200Z,-2.80
2018-03-18T22:41:16.448Z,-2.80
2018-03-18T22:43:44.721Z,-2.90
2018-03-18T22:46:13.013Z,-2.90
2018-03-18T22:48:41.317Z,-2.90
2018-03-18T22:51:08.798Z,-3.00
2018-03-18T22:53:36.454Z,-2.90
2018-03-18T22:56:03.966Z,-2.90
2018-03-18T22:58:31.475Z,-3.00
2018-03-18T23:00:58.974Z,-3.00
2018-03-18T23:03:27.260Z,-3.00
2018-03-18T23:05:54.788Z,-3.00
2018-03-18T23:08:22.355Z,-3.00
2018-03-18T23:10:49.903Z,-3.10
2018-03-18T23:13:17.474Z,-3.10
2018-03-18T23:15:45.148Z,-3.10
2018-03-18T23:18:12.639Z,-3.20
2018-03-18T23:20:40.143Z,-3.10
2018-03-18T23:23:08.404Z,-3.10
2018-03-18T23:25:36.661Z,-3.20
2018-03-18T23:28:04.172Z,-3.20
2018-03-18T23:30:32.521Z,-3.20
2018-03-18T23:33:00.057Z,-3.20
2018-03-18T23:35:27.571Z,-3.20
2018-03-18T23:37:55.876Z,-3.20
2018-03-18T23:40:23.422Z,-3.20
2018-03-18T23:42:51.836Z,-3.30
2018-03-18T23:45:19.346Z,-3.30
2018-03-18T23:47:46.909Z,-3.30
2018-03-18T23:50:14.432Z,-3.30
2018-03-18T23:52:41.931Z,-3.40
2018-03-18T23:55:09.441Z,-3.40
2018-03-18T23:57:37.002Z,-3.30
